createdAt,value
2023-01-01T00:02:42.392Z,6.00
2023-01-01T00:05:46.733Z,4.40
2023-01-01T00:09:10.204Z,4.63
2023-01-01T00:12:13.199Z,4.03
2023-01-01T00:15:16.384Z,3.83
2023-01-01T00:18:19.406Z,4.63
2023-01-01T00:21:23.799Z,3.90
2023-01-01T00:24:26.843Z,3.67
2023-01-01T00:27:29.893Z,3.70
2023-01-01T00:30:33.801Z,4.50
2023-01-01T00:33:36.861Z,4.13
2023-01-01T00:36:41.305Z,4.70
2023-01-01T00:39:44.434Z,3.90
2023-01-01T00:42:47.482Z,4.13
2023-01-01T00:45:53.818Z,4.87
2023-01-01T00:48:56.896Z,3.90
2023-01-01T00:52:01.262Z,3.70
2023-01-01T00:55:04.486Z,4.10
2023-01-01T00:58:07.642Z,4.20
2023-01-01T01:01:10.781Z,4.30
2023-01-01T01:04:14.214Z,3.20
2023-01-01T01:07:18.547Z,4.40
2023-01-01T01:10:22.182Z,4.13
2023-01-01T01:13:26.170Z,3.30
2023-01-01T01:16:30.989Z,3.57
2023-01-01T01:19:34.007Z,3.93
2023-01-01T01:22:38.371Z,3.00
2023-01-01T01:25:41.370Z,3.10
2023-01-01T01:28:49.437Z,3.40
2023-01-01T01:31:52.895Z,3.33
2023-01-01T01:34:55.888Z,3.03
2023-01-01T01:38:00.451Z,3.07
2023-01-01T01:41:04.099Z,2.97
2023-01-01T01:44:46.831Z,3.30
2023-01-01T01:47:52.162Z,2.80
2023-01-01T01:50:56.525Z,3.00
2023-01-01T01:54:03.754Z,3.80
2023-01-01T01:57:10.303Z,3.13
2023-01-01T02:00:14.843Z,2.87
2023-01-01T02:03:22.715Z,3.00
2023-01-01T02:06:27.482Z,3.00
2023-01-01T02:09:31.909Z,3.10
2023-01-01T02:12:34.979Z,3.33
2023-01-01T02:15:53.692Z,2.83
2023-01-01T02:19:02.204Z,2.90
2023-01-01T02:22:12.822Z,3.57
2023-01-01T02:25:29.422Z,3.07
2023-01-01T02:28:46.405Z,2.77
2023-01-01T02:31:55.283Z,2.83
2023-01-01T02:35:22.813Z,2.77
2023-01-01T02:38:29.730Z,2.70
2023-01-01T02:41:37.705Z,2.97
2023-01-01T02:44:46.115Z,3.60
2023-01-01T02:47:49.226Z,2.90
2023-01-01T02:50:52.900Z,2.90
2023-01-01T02:54:03.843Z,3.10
2023-01-01T02:57:11.217Z,2.70
2023-01-01T03:00:24.065Z,2.83
2023-01-01T03:03:32.185Z,3.10
2023-01-01T03:06:40.884Z,2.97
2023-01-01T03:09:49.482Z,2.93
2023-01-01T03:12:57.840Z,3.20
2023-01-01T03:16:10.383Z,3.33
2023-01-01T03:19:18.064Z,3.30
2023-01-01T03:22:25.632Z,4.20
2023-01-01T03:25:33.458Z,3.63
2023-01-01T03:28:40.905Z,3.70
2023-01-01T03:31:49.444Z,4.43
2023-01-01T03:34:55.904Z,4.00
2023-01-01T03:38:01.546Z,4.07
2023-01-01T03:41:08.219Z,3.87
2023-01-01T03:44:16.804Z,4.27
2023-01-01T03:47:21.630Z,4.27
2023-01-01T03:50:31.000Z,4.13
2023-01-01T03:53:40.371Z,4.90
2023-01-01T03:56:49.155Z,3.53
2023-01-01T03:59:58.973Z,5.03
2023-01-01T04:03:06.946Z,4.30
2023-01-01T04:06:12.388Z,4.20
2023-01-01T04:09:19.668Z,3.53
2023-01-01T04:12:23.059Z,3.97
2023-01-01T04:15:28.020Z,4.00
2023-01-01T04:18:32.335Z,3.83
2023-01-01T04:21:35.377Z,3.53
2023-01-01T04:24:38.432Z,3.77
2023-01-01T04:27:41.899Z,3.43
2023-01-01T04:33:48.136Z,3.97
2023-01-01T04:36:51.171Z,3.57
2023-01-01T04:39:54.279Z,3.13
2023-01-01T04:42:57.249Z,3.80
2023-01-01T04:46:02.024Z,4.10
2023-01-01T04:49:06.385Z,3.60
2023-01-01T04:52:09.436Z,3.60
2023-01-01T04:55:12.413Z,3.63
2023-01-01T04:58:15.397Z,4.10
2023-01-01T05:01:20.945Z,3.47
2023-01-01T05:04:25.440Z,3.40
2023-01-01T05:07:28.481Z,3.30
2023-01-01T05:10:31.467Z,2.57
2023-01-01T05:13:35.575Z,2.80
2023-01-01T05:16:40.153Z,2.50
2023-01-01T05:19:44.498Z,3.27
2023-01-01T05:22:47.643Z,2.63
2023-01-01T05:25:50.603Z,2.87
2023-01-01T05:28:53.630Z,2.43
2023-01-01T05:31:56.693Z,2.77
2023-01-01T05:35:01.058Z,2.60
2023-01-01T05:38:04.803Z,2.60
2023-01-01T05:41:08.832Z,2.70
2023-01-01T05:44:12.077Z,2.40
2023-01-01T05:47:17.457Z,2.60
2023-01-01T05:50:21.797Z,2.90
2023-01-01T05:53:24.793Z,2.20
2023-01-01T05:56:28.676Z,2.43
2023-01-01T05:59:31.665Z,2.07
2023-01-01T06:02:34.699Z,2.30
2023-01-01T06:05:39.073Z,3.17
2023-01-01T06:08:42.651Z,1.93
2023-01-01T06:11:45.619Z,2.00
2023-01-01T06:14:48.587Z,2.00
2023-01-01T06:17:51.567Z,2.10
2023-01-01T06:20:55.946Z,1.90
2023-01-01T06:24:00.625Z,2.30
2023-01-01T06:27:03.629Z,1.60
2023-01-01T06:30:08.091Z,2.30
2023-01-01T06:33:11.091Z,2.17
2023-01-01T06:36:16.717Z,2.00
2023-01-01T06:39:19.726Z,1.93
2023-01-01T06:42:22.698Z,1.70
2023-01-01T06:45:25.747Z,2.47
2023-01-01T06:48:30.283Z,2.23
2023-01-01T06:51:38.175Z,2.30
2023-01-01T06:54:41.170Z,1.63
2023-01-01T06:57:44.181Z,1.70
2023-01-01T07:00:47.169Z,1.80
2023-01-01T07:03:52.811Z,2.07
2023-01-01T07:06:57.147Z,1.90
2023-01-01T07:10:00.126Z,1.93
2023-01-01T07:13:03.160Z,1.70
2023-01-01T07:16:12.618Z,1.63
2023-01-01T07:19:16.253Z,1.50
2023-01-01T07:22:20.567Z,1.60
2023-01-01T07:25:23.736Z,1.50
2023-01-01T07:28:27.486Z,1.43
2023-01-01T07:31:30.542Z,1.70
2023-01-01T07:34:33.585Z,1.60
2023-01-01T07:37:38.028Z,1.80
2023-01-01T07:40:41.489Z,1.40
2023-01-01T07:43:44.485Z,1.90
2023-01-01T07:46:47.654Z,1.77
2023-01-01T07:49:51.812Z,1.73
2023-01-01T07:52:56.175Z,1.80
2023-01-01T07:55:59.214Z,1.40
2023-01-01T07:59:02.198Z,1.40
2023-01-01T08:02:05.603Z,1.27
2023-01-01T08:05:09.604Z,1.50
2023-01-01T08:08:13.936Z,1.03
2023-01-01T08:11:16.948Z,1.00
2023-01-01T08:14:20.043Z,1.13
2023-01-01T08:17:23.068Z,1.30
2023-01-01T08:20:26.591Z,1.87
2023-01-01T08:23:31.442Z,1.23
2023-01-01T08:26:36.223Z,1.10
2023-01-01T08:29:39.210Z,0.90
2023-01-01T08:32:42.282Z,0.90
2023-01-01T08:35:50.331Z,1.13
2023-01-01T08:38:58.076Z,1.10
2023-01-01T08:42:01.069Z,1.00
2023-01-01T08:45:04.437Z,0.97
2023-01-01T08:48:07.800Z,1.00
2023-01-01T08:51:11.416Z,1.00
2023-01-01T08:54:15.820Z,0.60
2023-01-01T08:57:18.848Z,1.47
2023-01-01T09:00:22.024Z,0.87
2023-01-01T09:03:25.064Z,0.90
2023-01-01T09:06:28.299Z,0.87
2023-01-01T09:09:32.668Z,1.07
2023-01-01T09:12:36.121Z,1.10
2023-01-01T09:15:39.428Z,1.00
2023-01-01T09:18:42.453Z,0.80
2023-01-01T09:21:45.486Z,0.93
2023-01-01T09:24:49.793Z,1.23
2023-01-01T09:27:58.669Z,1.00
2023-01-01T09:31:01.902Z,0.90
2023-01-01T09:34:04.876Z,1.13
2023-01-01T09:37:07.839Z,0.90
2023-01-01T09:40:24.763Z,0.80
2023-01-01T09:43:37.537Z,1.13
2023-01-01T09:46:40.632Z,0.83
2023-01-01T09:49:47.560Z,1.10
2023-01-01T09:52:56.316Z,1.03
2023-01-01T09:56:02.774Z,0.90
2023-01-01T09:59:05.758Z,1.03
2023-01-01T10:02:26.769Z,0.80
2023-01-01T10:05:38.345Z,0.77
2023-01-01T10:08:53.359Z,0.83
2023-01-01T10:12:05.214Z,0.90
2023-01-01T10:15:15.792Z,0.73
2023-01-01T10:18:24.363Z,0.87
2023-01-01T10:21:31.300Z,1.10
2023-01-01T10:24:44.072Z,1.10
2023-01-01T10:27:59.142Z,0.70
2023-01-01T10:31:15.719Z,0.80
2023-01-01T10:34:24.299Z,0.87
2023-01-01T10:37:38.151Z,1.30
2023-01-01T10:40:41.209Z,1.20
2023-01-01T10:43:46.216Z,0.90
2023-01-01T10:46:54.527Z,1.50
2023-01-01T10:49:59.577Z,1.17
2023-01-01T10:53:02.599Z,1.00
2023-01-01T10:56:12.951Z,0.87
2023-01-01T10:59:39.176Z,0.60
2023-01-01T11:02:42.268Z,0.80
2023-01-01T11:06:05.850Z,0.90
2023-01-01T11:09:22.594Z,0.73
2023-01-01T11:13:03.532Z,1.13
2023-01-01T11:15:57.273Z,0.90
2023-01-01T11:19:08.752Z,0.70
2023-01-01T11:22:36.553Z,0.70
2023-01-01T11:25:39.536Z,0.60
2023-01-01T11:28:42.945Z,1.07
2023-01-01T11:31:48.703Z,0.60
2023-01-01T11:34:58.643Z,0.87
2023-01-01T11:38:01.722Z,0.50
2023-01-01T11:41:07.131Z,0.90
2023-01-01T11:44:13.092Z,0.70
2023-01-01T11:47:29.769Z,0.50
2023-01-01T11:50:35.354Z,1.20
2023-01-01T11:53:41.138Z,1.10
2023-01-01T11:56:44.158Z,0.53
2023-01-01T11:59:51.859Z,1.17
2023-01-01T12:03:01.729Z,0.60
2023-01-01T12:06:09.918Z,1.00
2023-01-01T12:09:18.898Z,0.77
2023-01-01T12:12:27.374Z,1.17
2023-01-01T12:15:36.755Z,0.63
2023-01-01T12:18:47.358Z,0.57
2023-01-01T12:21:53.872Z,0.50
2023-01-01T12:24:58.995Z,0.47
2023-01-01T12:28:11.000Z,1.43
2023-01-01T12:31:22.666Z,0.77
2023-01-01T12:34:32.368Z,0.70
2023-01-01T12:37:46.123Z,0.80
2023-01-01T12:41:00.007Z,0.80
2023-01-01T12:44:12.494Z,0.73
2023-01-01T12:47:30.705Z,0.70
2023-01-01T12:50:47.891Z,0.83
2023-01-01T12:54:06.171Z,0.83
2023-01-01T12:57:14.867Z,0.80
2023-01-01T13:00:20.376Z,0.60
2023-01-01T13:03:28.432Z,0.70
2023-01-01T13:06:39.625Z,0.77
2023-01-01T13:09:48.220Z,0.70
2023-01-01T13:12:53.845Z,0.80
2023-01-01T13:15:58.129Z,0.50
2023-01-01T13:19:03.072Z,1.20
2023-01-01T13:22:41.923Z,0.73
2023-01-01T13:25:44.903Z,1.03
2023-01-01T13:29:27.249Z,0.90
2023-01-01T13:33:05.144Z,0.77
2023-01-01T13:36:34.148Z,0.87
2023-01-01T13:39:56.263Z,1.27
2023-01-01T13:43:08.078Z,1.27
2023-01-01T13:46:13.493Z,1.10
2023-01-01T13:49:27.881Z,1.00
2023-01-01T13:52:57.271Z,1.00
2023-01-01T13:56:17.164Z,1.57
2023-01-01T13:59:42.207Z,1.00
2023-01-01T14:02:47.731Z,1.60
2023-01-01T14:05:55.805Z,1.03
2023-01-01T14:09:06.618Z,0.73
2023-01-01T14:12:11.302Z,0.90
2023-01-01T14:15:23.450Z,1.03
2023-01-01T14:18:33.565Z,1.07
2023-01-01T14:21:39.903Z,1.20
2023-01-01T14:24:46.998Z,0.80
2023-01-01T14:27:50.250Z,1.07
2023-01-01T14:30:54.646Z,1.17
2023-01-01T14:33:57.897Z,1.47
2023-01-01T14:37:03.197Z,1.00
2023-01-01T14:40:18.546Z,1.03
2023-01-01T14:43:21.736Z,1.00
2023-01-01T14:46:27.489Z,1.23
2023-01-01T14:49:34.133Z,0.70
2023-01-01T14:52:37.400Z,1.10
2023-01-01T14:55:44.109Z,1.60
2023-01-01T14:58:47.124Z,1.23
2023-01-01T15:02:01.101Z,1.20
2023-01-01T15:05:33.299Z,0.97
2023-01-01T15:08:38.347Z,0.90
2023-01-01T15:11:42.944Z,0.90
2023-01-01T15:14:46.285Z,0.90
2023-01-01T15:17:49.296Z,1.10
2023-01-01T15:20:54.451Z,2.07
2023-01-01T15:24:00.316Z,1.00
2023-01-01T15:27:06.637Z,1.07
2023-01-01T15:30:24.969Z,1.07
2023-01-01T15:33:28.145Z,2.07
2023-01-01T15:36:31.312Z,1.03
2023-01-01T15:39:34.394Z,1.00
2023-01-01T15:42:39.977Z,1.27
2023-01-01T15:45:51.364Z,1.13
2023-01-01T15:48:54.674Z,1.07
2023-01-01T15:52:00.158Z,1.50
2023-01-01T15:55:03.415Z,1.73
2023-01-01T15:58:07.809Z,1.63
2023-01-01T16:01:14.270Z,1.70
2023-01-01T16:04:27.973Z,1.50
2023-01-01T16:07:32.149Z,1.40
2023-01-01T16:10:35.151Z,1.50
2023-01-01T16:13:39.473Z,1.30
2023-01-01T16:16:46.243Z,1.97
2023-01-01T16:19:51.520Z,1.50
2023-01-01T16:22:54.848Z,1.50
2023-01-01T16:25:57.934Z,1.30
2023-01-01T16:29:02.300Z,1.40
2023-01-01T16:32:05.947Z,1.60
2023-01-01T16:35:13.966Z,1.67
2023-01-01T16:38:16.971Z,1.57
2023-01-01T16:41:20.313Z,1.23
2023-01-01T16:44:24.637Z,1.50
2023-01-01T16:47:27.661Z,1.73
2023-01-01T16:50:30.701Z,1.83
2023-01-01T16:53:34.106Z,1.87
2023-01-01T16:56:41.858Z,1.67
2023-01-01T16:59:47.270Z,2.20
2023-01-01T17:02:50.705Z,2.33
2023-01-01T17:05:53.906Z,2.57
2023-01-01T17:08:56.875Z,1.60
2023-01-01T17:11:59.835Z,1.90
2023-01-01T17:15:04.412Z,1.87
2023-01-01T17:18:07.875Z,1.60
2023-01-01T17:21:12.430Z,1.70
2023-01-01T17:24:15.982Z,1.60
2023-01-01T17:27:18.936Z,2.27
2023-01-01T17:30:23.252Z,1.80
2023-01-01T17:33:26.241Z,1.77
2023-01-01T17:36:29.383Z,1.60
2023-01-01T17:39:32.353Z,2.27
2023-01-01T17:42:36.210Z,1.20
2023-01-01T17:45:40.566Z,4.30
2023-01-01T17:48:45.625Z,2.33
2023-01-01T17:51:48.659Z,1.60
2023-01-01T17:54:52.260Z,2.47
2023-01-01T17:57:55.239Z,1.70
2023-01-01T18:01:14.166Z,2.27
2023-01-01T18:04:17.915Z,1.80
2023-01-01T18:07:20.992Z,1.57
2023-01-01T18:10:24.002Z,1.87
2023-01-01T18:13:27.850Z,2.10
2023-01-01T18:16:34.370Z,1.97
2023-01-01T18:19:38.928Z,2.10
2023-01-01T18:22:43.336Z,2.17
2023-01-01T18:25:46.469Z,2.47
2023-01-01T18:28:53.215Z,2.33
2023-01-01T18:31:57.565Z,2.30
2023-01-01T18:35:00.557Z,2.47
2023-01-01T18:38:03.564Z,2.10
2023-01-01T18:41:25.736Z,1.90
2023-01-01T18:44:31.104Z,2.13
2023-01-01T18:47:35.402Z,2.80
2023-01-01T18:50:38.421Z,2.37
2023-01-01T18:53:41.444Z,2.40
2023-01-01T18:56:45.239Z,2.40
2023-01-01T18:59:48.926Z,2.30
2023-01-01T19:02:57.440Z,2.20
2023-01-01T19:06:01.691Z,2.10
2023-01-01T19:09:18.551Z,2.30
2023-01-01T19:12:23.231Z,2.33
2023-01-01T19:15:26.235Z,2.07
2023-01-01T19:18:32.944Z,2.07
2023-01-01T19:21:35.964Z,2.50
2023-01-01T19:24:39.104Z,2.00
2023-01-01T19:27:42.360Z,1.87
2023-01-01T19:30:46.350Z,2.00
2023-01-01T19:33:51.032Z,2.67
2023-01-01T19:36:54.066Z,2.10
2023-01-01T19:39:57.064Z,3.27
2023-01-01T19:43:01.621Z,2.73
2023-01-01T19:46:04.827Z,2.27
2023-01-01T19:49:09.165Z,3.17
2023-01-01T19:52:12.168Z,2.57
2023-01-01T19:55:15.184Z,2.27
2023-01-01T19:58:19.763Z,2.40
2023-01-01T20:01:22.859Z,2.33
2023-01-01T20:04:27.362Z,3.87
2023-01-01T20:07:30.427Z,2.57
2023-01-01T20:10:33.465Z,2.50
2023-01-01T20:13:36.477Z,2.60
2023-01-01T20:16:39.599Z,3.07
2023-01-01T20:19:43.933Z,2.83
2023-01-01T20:22:47.014Z,2.83
2023-01-01T20:25:50.059Z,2.70
2023-01-01T20:29:10.611Z,2.57
2023-01-01T20:32:15.401Z,2.90
2023-01-01T20:35:40.008Z,3.37
2023-01-01T20:38:42.047Z,2.63
2023-01-01T20:41:45.102Z,3.23
2023-01-01T20:44:48.141Z,3.10
2023-01-01T20:47:51.161Z,2.60
2023-01-01T20:50:55.494Z,2.80
2023-01-01T20:53:58.524Z,3.80
2023-01-01T20:57:01.551Z,3.70
2023-01-01T21:00:06.901Z,2.83
2023-01-01T21:03:09.945Z,3.40
2023-01-01T21:06:19.983Z,4.00
2023-01-01T21:09:26.653Z,3.67
2023-01-01T21:12:29.735Z,2.93
2023-01-01T21:15:33.482Z,3.90
2023-01-01T21:18:36.563Z,3.63
2023-01-01T21:21:45.306Z,3.53
2023-01-01T21:24:53.630Z,3.20
2023-01-01T21:27:59.057Z,3.17
2023-01-01T21:31:03.847Z,3.03
2023-01-01T21:34:21.428Z,3.03
2023-01-01T21:37:48.380Z,3.50
2023-01-01T21:40:53.292Z,3.10
2023-01-01T21:43:58.812Z,3.37
2023-01-01T21:47:03.191Z,3.30
2023-01-01T21:50:24.463Z,3.10
2023-01-01T21:53:31.452Z,3.23
2023-01-01T21:56:37.891Z,2.97
2023-01-01T21:59:44.313Z,3.00
2023-01-01T22:02:48.185Z,3.10
2023-01-01T22:05:57.334Z,3.30
2023-01-01T22:09:14.736Z,2.80
2023-01-01T22:12:23.631Z,4.37
2023-01-01T22:15:40.650Z,3.00
2023-01-01T22:18:43.937Z,3.33
2023-01-01T22:21:48.940Z,3.23
2023-01-01T22:24:56.023Z,4.20
2023-01-01T22:28:04.003Z,2.70
2023-01-01T22:31:07.258Z,3.07
2023-01-01T22:34:20.335Z,2.53
2023-01-01T22:37:28.781Z,2.40
2023-01-01T22:40:35.489Z,2.37
2023-01-01T22:43:42.376Z,2.43
2023-01-01T22:46:45.855Z,2.10
2023-01-01T22:49:52.981Z,2.57
2023-01-01T22:52:55.987Z,2.50
2023-01-01T22:56:00.421Z,2.20
2023-01-01T22:59:03.398Z,2.40
2023-01-01T23:02:06.941Z,2.20
2023-01-01T23:05:10.926Z,1.97
2023-01-01T23:08:13.919Z,2.23
2023-01-01T23:11:18.679Z,2.20
2023-01-01T23:14:39.498Z,1.93
2023-01-01T23:17:42.691Z,2.33
2023-01-01T23:20:45.714Z,2.27
2023-01-01T23:23:51.077Z,1.80
2023-01-01T23:26:55.536Z,1.80
2023-01-01T23:29:58.793Z,2.20
2023-01-01T23:33:02.023Z,2.03
2023-01-01T23:36:06.142Z,1.60
2023-01-01T23:39:09.160Z,1.90
2023-01-01T23:42:13.480Z,2.03
2023-01-01T23:45:16.550Z,2.40
2023-01-01T23:48:20.392Z,1.90
2023-01-01T23:51:23.401Z,2.17
2023-01-01T23:54:26.385Z,2.30
2023-01-01T23:57:30.714Z,2.30
